Time;durP1;ratioP1;P1;durP2;ratioP2;P2;SDS_P1;SDS_P2;PMS_P1;PMS_P2;Temp;Humidity;BMP_temperature;BMP_pressure;BME280_temperature;BME280_humidity;BME280_pressure;Samples;Min_cycle;Max_cycle;Signal;HPM_P1;HPM_P2
2023/02/02 00:01:26;;;;;;;1.08;0.90;;;18.30;41.90;;;;;;6130384;23;20136;-82
2023/02/02 00:03:52;;;;;;;1.35;1.08;;;18.30;41.80;;;;;;6156155;23;20142;-81
2023/02/02 00:06:19;;;;;;;1.67;0.95;;;18.30;41.80;;;;;;6130128;23;20136;-81
2023/02/02 00:08:45;;;;;;;1.08;0.80;;;18.30;41.90;;;;;;6130380;23;20136;-80
2023/02/02 00:11:11;;;;;;;1.23;1.10;;;18.30;41.90;;;;;;6130065;23;20180;-81
2023/02/02 00:13:37;;;;;;;1.55;0.95;;;18.30;41.90;;;;;;6105493;23;20459;-82
2023/02/02 00:16:33;;;;;;;1.23;0.90;;;18.30;41.90;;;;;;6105870;23;20135;-81
2023/02/02 00:19:00;;;;;;;1.30;1.20;;;18.20;41.90;;;;;;6105316;23;20159;-80
2023/02/02 00:21:26;;;;;;;1.17;0.90;;;18.20;42.00;;;;;;6081523;23;20238;-81
2023/02/02 00:23:52;;;;;;;1.27;1.17;;;18.30;42.00;;;;;;6081350;23;20188;-81
2023/02/02 00:26:18;;;;;;;1.40;0.90;;;18.20;42.00;;;;;;6155838;23;20132;-81
2023/02/02 00:28:44;;;;;;;1.17;1.08;;;18.20;42.00;;;;;;6130334;23;20139;-81
2023/02/02 00:31:09;;;;;;;2.97;1.00;;;18.20;42.00;;;;;;6130247;23;20135;-81
2023/02/02 00:33:35;;;;;;;1.08;0.80;;;18.20;42.00;;;;;;6155809;23;20132;-81
2023/02/02 00:36:01;;;;;;;1.60;1.00;;;18.20;42.10;;;;;;6155658;23;20140;-81
2023/02/02 00:38:26;;;;;;;1.35;1.05;;;18.20;42.10;;;;;;6129732;23;20606;-81
2023/02/02 00:40:52;;;;;;;1.15;0.80;;;18.20;42.10;;;;;;6105314;23;20151;-81
2023/02/02 00:43:18;;;;;;;1.58;1.08;;;18.20;42.20;;;;;;6129879;23;20187;-80
2023/02/02 00:45:43;;;;;;;1.85;1.10;;;18.20;42.20;;;;;;6156048;23;20571;-81
2023/02/02 00:48:10;;;;;;;1.20;1.02;;;18.20;42.20;;;;;;6081157;23;20471;-80
2023/02/02 00:50:35;;;;;;;1.17;1.08;;;18.20;42.20;;;;;;6130011;23;20136;-80
2023/02/02 00:53:01;;;;;;;1.17;0.90;;;18.20;42.20;;;;;;6129601;23;20135;-80
2023/02/02 00:55:27;;;;;;;1.38;1.10;;;18.20;42.30;;;;;;6129743;23;20140;-81
2023/02/02 00:57:53;;;;;;;1.15;0.88;;;18.20;42.30;;;;;;6129687;23;20606;-80
2023/02/02 01:00:22;;;;;;;1.90;1.20;;;18.20;42.30;;;;;;6129993;23;20135;-81
2023/02/02 01:02:48;;;;;;;1.50;1.23;;;18.20;42.30;;;;;;6106085;23;20128;-80
2023/02/02 01:05:14;;;;;;;1.00;0.90;;;18.20;42.40;;;;;;6131478;23;20162;-81
2023/02/02 01:07:40;;;;;;;1.42;1.13;;;18.20;42.40;;;;;;6083408;23;20159;-81
2023/02/02 01:10:07;;;;;;;1.35;1.00;;;18.20;42.40;;;;;;6107292;23;20528;-80
2023/02/02 01:12:33;;;;;;;1.70;1.10;;;18.20;42.50;;;;;;6131834;23;20227;-81
2023/02/02 01:15:00;;;;;;;0.95;0.85;;;18.10;42.50;;;;;;6131606;23;20143;-81
2023/02/02 01:17:25;;;;;;;1.17;1.08;;;18.20;42.50;;;;;;6131492;23;20167;-81
2023/02/02 01:19:51;;;;;;;1.77;1.13;;;18.10;42.40;;;;;;6131925;23;20214;-81
2023/02/02 01:22:17;;;;;;;1.40;1.00;;;18.10;42.50;;;;;;6131511;23;20171;-81
2023/02/02 01:24:42;;;;;;;1.20;0.95;;;18.10;42.50;;;;;;6157536;23;20140;-80
2023/02/02 01:27:08;;;;;;;1.17;0.90;;;18.20;42.50;;;;;;6157389;23;20140;-81
2023/02/02 01:29:33;;;;;;;1.20;1.08;;;18.20;42.50;;;;;;6131516;23;20136;-80
2023/02/02 01:31:59;;;;;;;2.35;1.10;;;18.20;42.50;;;;;;6082820;23;20147;-81
2023/02/02 01:34:25;;;;;;;1.00;0.90;;;18.20;42.60;;;;;;6131415;23;20140;-80
2023/02/02 01:36:50;;;;;;;0.98;0.88;;;18.10;42.60;;;;;;6131080;23;20566;-80
2023/02/02 01:39:16;;;;;;;0.98;0.80;;;18.10;42.70;;;;;;6082789;23;20475;-81
2023/02/02 01:41:42;;;;;;;1.42;1.10;;;18.10;42.70;;;;;;6131534;23;20136;-80
2023/02/02 01:44:42;;;;;;;2.38;1.02;;;18.10;42.80;;;;;;6157321;23;20139;-81
2023/02/02 01:47:08;;;;;;;1.50;1.02;;;18.10;42.70;;;;;;6157203;23;20267;-81
2023/02/02 01:49:33;;;;;;;1.52;0.90;;;18.10;42.80;;;;;;6157709;23;20180;-80
2023/02/02 01:51:59;;;;;;;1.10;0.93;;;18.10;42.80;;;;;;6157487;23;20294;-81
2023/02/02 01:54:31;;;;;;;0.98;0.93;;;18.10;42.80;;;;;;6131476;23;20658;-81
2023/02/02 01:56:59;;;;;;;1.35;0.98;;;18.10;42.70;;;;;;6131165;23;20163;-81
2023/02/02 01:59:25;;;;;;;1.45;0.90;;;18.10;42.80;;;;;;6131192;23;20135;-81
2023/02/02 02:01:51;;;;;;;0.90;0.88;;;18.10;42.80;;;;;;6131022;23;20198;-81
2023/02/02 02:04:16;;;;;;;1.85;0.90;;;18.10;42.80;;;;;;6131294;23;20136;-80
2023/02/02 02:06:42;;;;;;;2.55;0.95;;;18.10;42.80;;;;;;6106614;23;20498;-81
2023/02/02 02:09:08;;;;;;;1.73;1.10;;;18.10;42.90;;;;;;6131188;23;20139;-81
2023/02/02 02:11:34;;;;;;;1.17;1.08;;;18.10;43.00;;;;;;6131052;23;20657;-81
2023/02/02 02:17:02;;;;;;;1.40;1.05;;;18.10;43.00;;;;;;6114797;23;20171;-81
2023/02/02 02:29:21;;;;;;;1.00;0.88;;;18.00;43.00;;;;;;6137754;23;20147;-81
2023/02/02 02:32:12;;;;;;;0.93;0.80;;;18.00;43.10;;;;;;6130983;23;20535;-81
2023/02/02 02:34:47;;;;;;;1.13;1.00;;;18.10;43.10;;;;;;6133921;23;20135;-81
2023/02/02 02:37:22;;;;;;;1.05;0.95;;;18.00;43.10;;;;;;6131722;23;20597;-81
2023/02/02 02:39:52;;;;;;;1.95;1.10;;;18.00;43.20;;;;;;6156896;23;20136;-81
2023/02/02 02:42:21;;;;;;;1.65;1.08;;;18.10;43.20;;;;;;6131793;23;20139;-81
2023/02/02 02:44:48;;;;;;;1.17;0.82;;;18.00;43.30;;;;;;6131170;23;20515;-80
2023/02/02 02:47:13;;;;;;;1.40;1.00;;;18.00;43.20;;;;;;6156655;23;20139;-80
2023/02/02 02:49:43;;;;;;;1.48;1.00;;;18.00;43.90;;;;;;6130852;23;20186;-81
2023/02/02 02:52:08;;;;;;;2.42;1.25;;;18.10;43.20;;;;;;6156714;23;20143;-80
2023/02/02 02:54:39;;;;;;;1.13;1.02;;;18.00;43.40;;;;;;6156566;23;20140;-81
2023/02/02 02:57:42;;;;;;;2.00;0.93;;;18.00;43.30;;;;;;6157372;23;20254;-80
2023/02/02 03:00:31;;;;;;;1.10;0.93;;;18.00;43.30;;;;;;6134814;23;20226;-81
2023/02/02 03:03:24;;;;;;;2.10;0.88;;;18.00;43.40;;;;;;6156571;23;20635;-81
2023/02/02 03:06:01;;;;;;;1.83;1.10;;;17.90;43.40;;;;;;6114644;23;20226;-80
2023/02/02 03:08:33;;;;;;;0.93;0.90;;;18.00;43.50;;;;;;6108121;23;20131;-81
2023/02/02 03:10:58;;;;;;;2.00;1.00;;;17.90;43.40;;;;;;6156521;23;20140;-81
2023/02/02 03:13:25;;;;;;;1.33;1.00;;;17.90;43.50;;;;;;6130614;23;20207;-81
2023/02/02 03:15:50;;;;;;;2.00;0.98;;;18.00;43.50;;;;;;6156412;23;20132;-81
2023/02/02 03:18:16;;;;;;;1.55;0.88;;;17.90;43.30;;;;;;6156234;23;20168;-80
2023/02/02 03:20:42;;;;;;;2.88;0.80;;;18.00;43.40;;;;;;6130582;23;20142;-80
2023/02/02 03:23:08;;;;;;;1.00;0.90;;;18.00;43.50;;;;;;6130557;23;20132;-81
2023/02/02 03:25:33;;;;;;;1.30;0.80;;;17.90;43.40;;;;;;6156432;23;20210;-81
2023/02/02 03:27:59;;;;;;;1.60;1.10;;;17.90;43.40;;;;;;6130138;23;20139;-81
2023/02/02 03:30:25;;;;;;;1.52;0.90;;;18.00;43.50;;;;;;6156367;23;20630;-81
2023/02/02 03:32:50;;;;;;;1.45;1.00;;;18.00;43.50;;;;;;6156369;23;20568;-81
2023/02/02 03:35:16;;;;;;;1.73;1.10;;;18.00;43.50;;;;;;6156294;23;20506;-81
2023/02/02 03:37:42;;;;;;;1.92;0.88;;;18.00;43.50;;;;;;6105731;23;20277;-81
2023/02/02 03:40:08;;;;;;;0.95;0.90;;;17.90;43.50;;;;;;6130473;23;20215;-80
2023/02/02 03:42:34;;;;;;;1.00;0.90;;;17.90;43.60;;;;;;6156497;23;20195;-80
2023/02/02 03:44:59;;;;;;;0.90;0.73;;;17.90;43.60;;;;;;6156541;23;20147;-80
2023/02/02 03:47:28;;;;;;;1.38;0.98;;;17.90;43.60;;;;;;6129957;23;20268;-80
2023/02/02 03:49:54;;;;;;;1.00;0.80;;;18.00;43.70;;;;;;6156418;23;20455;-80
2023/02/02 03:52:19;;;;;;;1.20;1.00;;;17.90;43.70;;;;;;6156210;23;20574;-80
2023/02/02 03:54:45;;;;;;;0.90;0.80;;;17.90;43.70;;;;;;6130128;23;20146;-80
2023/02/02 03:57:11;;;;;;;1.20;1.00;;;17.90;43.60;;;;;;6155978;23;20246;-81
2023/02/02 03:59:36;;;;;;;1.20;1.10;;;17.90;43.70;;;;;;6156063;23;20571;-80
2023/02/02 04:02:02;;;;;;;1.13;0.82;;;17.90;43.70;;;;;;6130065;23;20551;-80
2023/02/02 04:04:28;;;;;;;1.38;1.08;;;17.90;43.70;;;;;;6105719;23;20602;-81
2023/02/02 04:06:53;;;;;;;1.40;1.10;;;17.90;43.70;;;;;;6105456;23;20205;-81
2023/02/02 04:09:19;;;;;;;1.10;1.00;;;17.90;43.80;;;;;;6156044;23;20224;-81
2023/02/02 04:11:45;;;;;;;1.65;0.95;;;17.90;43.70;;;;;;6156133;23;20136;-81
2023/02/02 04:14:10;;;;;;;1.00;0.90;;;17.90;43.80;;;;;;6130085;23;20583;-81
2023/02/02 04:16:36;;;;;;;1.00;0.90;;;17.80;43.80;;;;;;6105215;23;20206;-82
2023/02/02 04:19:03;;;;;;;0.90;0.90;;;17.90;43.80;;;;;;6156058;23;20131;-81
2023/02/02 04:21:29;;;;;;;0.85;0.85;;;17.90;43.80;;;;;;6105809;23;20150;-81
2023/02/02 04:23:55;;;;;;;1.80;0.93;;;17.90;44.00;;;;;;6130117;23;20206;-81
2023/02/02 04:26:24;;;;;;;1.33;1.05;;;17.90;43.90;;;;;;6129773;23;20132;-81
2023/02/02 04:28:50;;;;;;;1.52;1.10;;;17.90;43.80;;;;;;6106757;23;20586;-81
2023/02/02 04:31:16;;;;;;;1.10;0.90;;;17.90;43.80;;;;;;6155847;23;20131;-81
2023/02/02 04:33:42;;;;;;;0.77;0.70;;;17.90;43.90;;;;;;6105640;23;20163;-81
2023/02/02 04:36:07;;;;;;;0.70;0.70;;;17.90;43.80;;;;;;6105360;23;20211;-81
2023/02/02 04:38:33;;;;;;;0.95;0.85;;;17.90;43.90;;;;;;6129846;23;20603;-80
2023/02/02 04:41:04;;;;;;;1.05;0.95;;;17.90;43.80;;;;;;6156155;23;20140;-81
2023/02/02 04:43:29;;;;;;;1.50;1.00;;;17.90;43.90;;;;;;6130159;23;20198;-81
2023/02/02 04:45:56;;;;;;;1.00;0.90;;;17.90;44.00;;;;;;6155764;23;20175;-81
2023/02/02 04:48:21;;;;;;;1.67;1.00;;;17.80;44.00;;;;;;6129580;23;20292;-80
2023/02/02 04:50:47;;;;;;;1.45;0.93;;;17.90;44.00;;;;;;6155832;23;20168;-80
2023/02/02 04:53:12;;;;;;;1.17;0.82;;;17.90;44.00;;;;;;6155673;23;20470;-80
2023/02/02 04:55:38;;;;;;;1.42;0.80;;;17.90;44.00;;;;;;6155597;23;20163;-81
2023/02/02 04:58:04;;;;;;;0.68;0.68;;;17.80;44.10;;;;;;6155660;23;20614;-81
2023/02/02 05:00:30;;;;;;;2.15;0.90;;;17.80;44.10;;;;;;6155962;23;20206;-81
2023/02/02 05:02:56;;;;;;;0.80;0.80;;;17.80;44.10;;;;;;6155742;23;20564;-81
2023/02/02 05:05:21;;;;;;;1.40;0.95;;;17.80;44.10;;;;;;6155600;23;20563;-81
2023/02/02 05:07:47;;;;;;;1.33;1.00;;;17.80;44.20;;;;;;6155596;23;20503;-81
2023/02/02 05:10:13;;;;;;;1.80;0.88;;;17.80;44.20;;;;;;6129671;23;20498;-81
2023/02/02 05:12:38;;;;;;;1.25;0.90;;;17.80;44.20;;;;;;6129611;23;20144;-81
2023/02/02 05:15:04;;;;;;;1.00;0.90;;;17.80;44.10;;;;;;6155703;23;20567;-81
2023/02/02 05:17:30;;;;;;;1.25;0.90;;;17.80;44.10;;;;;;6155838;23;20168;-81
2023/02/02 05:19:56;;;;;;;1.00;0.80;;;17.70;44.10;;;;;;6129889;23;20136;-81
2023/02/02 05:22:21;;;;;;;0.80;0.80;;;17.80;44.20;;;;;;6155682;23;20136;-80
2023/02/02 05:24:47;;;;;;;1.30;1.00;;;17.80;44.10;;;;;;6129663;23;20559;-81
2023/02/02 05:27:13;;;;;;;0.70;0.65;;;17.80;44.30;;;;;;6129652;23;20481;-81
2023/02/02 05:29:38;;;;;;;1.38;1.00;;;17.80;44.20;;;;;;6105165;23;20606;-81
2023/02/02 05:32:04;;;;;;;0.88;0.77;;;17.80;44.20;;;;;;6129437;23;20601;-81
2023/02/02 05:34:30;;;;;;;0.88;0.88;;;17.80;44.20;;;;;;6155693;23;20417;-81
2023/02/02 05:36:55;;;;;;;1.45;0.82;;;17.80;44.30;;;;;;6155386;23;20242;-81
2023/02/02 05:39:21;;;;;;;1.65;0.73;;;17.80;44.30;;;;;;6155484;23;20576;-80
2023/02/02 05:41:46;;;;;;;1.00;0.90;;;17.80;44.30;;;;;;6130024;23;20506;-80
2023/02/02 05:44:13;;;;;;;0.70;0.70;;;17.80;44.30;;;;;;6105007;23;20529;-80
2023/02/02 05:46:38;;;;;;;1.02;0.93;;;17.80;44.30;;;;;;6105247;23;20147;-81
2023/02/02 05:49:04;;;;;;;1.55;0.90;;;17.80;44.30;;;;;;6105190;23;20471;-81
2023/02/02 05:51:36;;;;;;;1.40;0.90;;;17.80;44.30;;;;;;6131323;23;20132;-81
2023/02/02 05:54:01;;;;;;;0.80;0.80;;;17.80;44.30;;;;;;6107820;23;20139;-80
2023/02/02 05:56:27;;;;;;;1.08;0.82;;;17.80;44.40;;;;;;6131169;23;20646;-81
2023/02/02 05:58:52;;;;;;;1.35;0.85;;;17.80;44.40;;;;;;6131247;23;20481;-81
2023/02/02 06:01:20;;;;;;;1.58;0.98;;;17.70;44.40;;;;;;6157242;23;20615;-81
2023/02/02 06:03:45;;;;;;;1.33;0.90;;;17.70;44.30;;;;;;6131793;23;20175;-81
2023/02/02 06:06:11;;;;;;;0.80;0.80;;;17.80;44.40;;;;;;6157105;23;20139;-81
2023/02/02 06:08:37;;;;;;;1.13;0.90;;;17.70;44.40;;;;;;6157199;23;20444;-80
2023/02/02 06:11:11;;;;;;;1.02;0.90;;;17.70;44.50;;;;;;6157012;23;20579;-80
2023/02/02 06:13:36;;;;;;;0.90;0.70;;;17.70;44.40;;;;;;6157055;23;20220;-80
2023/02/02 06:16:02;;;;;;;1.20;1.05;;;17.70;44.40;;;;;;6157028;23;20159;-81
2023/02/02 06:18:28;;;;;;;1.40;0.90;;;17.80;44.50;;;;;;6157153;23;20178;-81
2023/02/02 06:20:57;;;;;;;1.73;0.80;;;17.80;44.50;;;;;;6130947;23;20159;-80
2023/02/02 06:23:23;;;;;;;1.38;1.00;;;17.70;44.50;;;;;;6106680;23;20587;-80
2023/02/02 06:25:49;;;;;;;1.10;0.90;;;17.80;44.60;;;;;;6156848;23;20128;-81
2023/02/02 06:28:15;;;;;;;0.82;0.73;;;17.70;44.40;;;;;;6106599;23;20155;-81
2023/02/02 06:30:40;;;;;;;0.82;0.70;;;17.70;44.50;;;;;;6130811;23;20143;-80
2023/02/02 06:33:06;;;;;;;0.80;0.80;;;17.70;44.60;;;;;;6156725;23;20560;-81
2023/02/02 06:35:32;;;;;;;1.23;0.90;;;17.70;44.60;;;;;;6130923;23;20557;-81
2023/02/02 06:37:58;;;;;;;2.00;1.02;;;17.70;44.60;;;;;;6130585;23;20199;-81
2023/02/02 06:40:24;;;;;;;1.02;0.85;;;17.70;44.80;;;;;;6131102;23;20575;-81
2023/02/02 06:42:58;;;;;;;1.05;0.95;;;17.60;44.60;;;;;;6157120;23;20142;-81
2023/02/02 06:45:24;;;;;;;1.35;0.80;;;17.70;44.60;;;;;;6156995;23;20136;-81
2023/02/02 06:47:50;;;;;;;1.90;0.80;;;17.70;44.60;;;;;;6130904;23;20522;-80
2023/02/02 06:50:16;;;;;;;1.02;0.68;;;17.70;44.60;;;;;;6156700;23;20175;-80
2023/02/02 06:52:47;;;;;;;0.88;0.80;;;17.70;44.70;;;;;;6130698;23;20143;-80
2023/02/02 06:55:13;;;;;;;1.17;0.90;;;17.70;44.70;;;;;;6082610;23;20162;-80
2023/02/02 06:57:39;;;;;;;1.65;0.90;;;17.70;44.60;;;;;;6130502;23;20163;-80
2023/02/02 07:00:05;;;;;;;1.38;0.98;;;17.80;44.70;;;;;;6156692;23;20516;-80
2023/02/02 07:02:30;;;;;;;0.60;0.60;;;17.70;44.70;;;;;;6156034;23;20132;-81
2023/02/02 07:04:56;;;;;;;1.33;0.90;;;17.70;44.70;;;;;;6156564;23;20132;-80
2023/02/02 07:07:22;;;;;;;1.77;1.10;;;17.70;44.90;;;;;;6156695;23;20610;-81
2023/02/02 07:09:47;;;;;;;1.55;0.95;;;17.70;45.20;;;;;;6105966;23;20583;-81
2023/02/02 07:12:13;;;;;;;0.90;0.70;;;17.70;45.10;;;;;;6130518;23;20598;-81
2023/02/02 07:14:38;;;;;;;2.10;0.98;;;17.70;45.30;;;;;;6082112;23;20482;-81
2023/02/02 07:17:04;;;;;;;1.08;0.88;;;17.70;45.20;;;;;;6156190;23;20167;-80
2023/02/02 07:19:30;;;;;;;1.13;0.80;;;17.70;45.40;;;;;;6106054;23;20567;-81
2023/02/02 07:21:55;;;;;;;1.58;1.00;;;17.70;45.50;;;;;;6105920;23;20171;-80
2023/02/02 07:24:21;;;;;;;1.08;0.90;;;17.70;45.40;;;;;;6130254;23;20154;-80
2023/02/02 07:26:47;;;;;;;2.35;0.80;;;17.70;45.10;;;;;;6156429;23;20467;-80
2023/02/02 07:29:13;;;;;;;1.27;0.80;;;17.70;45.20;;;;;;6156327;23;20510;-81
2023/02/02 07:31:38;;;;;;;1.33;0.88;;;17.70;45.10;;;;;;6130360;23;20136;-81
2023/02/02 07:34:04;;;;;;;0.93;0.60;;;17.70;45.00;;;;;;6156353;23;20194;-80
2023/02/02 07:36:29;;;;;;;1.75;0.73;;;17.70;44.90;;;;;;6129987;23;20183;-80
2023/02/02 07:38:56;;;;;;;1.80;0.85;;;17.80;44.70;;;;;;6130431;23;20206;-81
2023/02/02 07:41:22;;;;;;;1.00;0.90;;;17.90;44.80;;;;;;6129897;23;20147;-81
2023/02/02 07:43:48;;;;;;;1.65;0.80;;;17.90;44.60;;;;;;6130844;23;20136;-82
2023/02/02 07:46:14;;;;;;;0.88;0.70;;;17.90;44.70;;;;;;6156924;23;20214;-82
2023/02/02 07:48:39;;;;;;;1.45;0.70;;;18.00;44.60;;;;;;6156491;23;20590;-82
2023/02/02 07:51:07;;;;;;;2.08;0.90;;;18.10;44.70;;;;;;6156112;23;20144;-82
2023/02/02 07:53:33;;;;;;;1.42;0.90;;;18.10;44.40;;;;;;6130035;23;20140;-83
2023/02/02 07:56:16;;;;;;;1.52;1.00;;;18.10;43.90;;;;;;6130662;23;20198;-82
2023/02/02 07:58:42;;;;;;;1.17;0.88;;;18.10;43.90;;;;;;6130507;23;20222;-83
2023/02/02 08:01:09;;;;;;;0.70;0.70;;;18.10;43.70;;;;;;6130451;23;20574;-82
2023/02/02 08:03:35;;;;;;;1.08;0.70;;;18.20;43.90;;;;;;6130255;23;20185;-82
2023/02/02 08:06:01;;;;;;;1.05;0.75;;;18.20;43.80;;;;;;6131314;23;20214;-82
2023/02/02 08:08:26;;;;;;;1.00;0.90;;;18.20;43.90;;;;;;6130418;23;20143;-82
2023/02/02 08:10:52;;;;;;;1.10;0.93;;;18.10;44.00;;;;;;6156085;23;20223;-82
2023/02/02 08:13:18;;;;;;;1.20;0.80;;;18.10;43.90;;;;;;6106032;23;20163;-82
2023/02/02 08:15:44;;;;;;;1.08;0.80;;;18.10;44.10;;;;;;6130809;23;20139;-82
2023/02/02 08:18:10;;;;;;;1.08;0.80;;;18.10;44.10;;;;;;6130285;23;20621;-83
2023/02/02 08:20:35;;;;;;;0.88;0.75;;;18.10;44.10;;;;;;6130536;23;20590;-82
2023/02/02 08:23:01;;;;;;;1.17;0.80;;;18.10;44.20;;;;;;6105406;23;20147;-83
2023/02/02 08:25:27;;;;;;;1.95;1.00;;;18.10;44.20;;;;;;6105376;23;20535;-82
2023/02/02 08:27:54;;;;;;;0.80;0.70;;;18.00;44.10;;;;;;6156434;23;20143;-82
2023/02/02 08:30:20;;;;;;;0.52;0.50;;;18.10;43.80;;;;;;6106011;23;20203;-82
2023/02/02 08:32:46;;;;;;;0.82;0.70;;;18.20;44.00;;;;;;6130979;23;20155;-83
2023/02/02 08:35:12;;;;;;;1.55;0.80;;;18.20;43.90;;;;;;6156375;23;20441;-83
2023/02/02 08:37:37;;;;;;;0.70;0.55;;;18.20;43.90;;;;;;6129633;23;20713;-82
2023/02/02 08:40:03;;;;;;;1.20;0.70;;;18.20;43.40;;;;;;6130149;23;20157;-82
2023/02/02 08:42:29;;;;;;;2.38;0.93;;;18.20;43.90;;;;;;6155440;23;20135;-81
2023/02/02 08:44:55;;;;;;;1.27;0.65;;;18.20;43.70;;;;;;6156122;23;20140;-81
2023/02/02 08:47:20;;;;;;;0.85;0.70;;;18.30;43.60;;;;;;6129440;23;20144;-81
2023/02/02 08:49:46;;;;;;;2.30;0.73;;;18.20;43.40;;;;;;6155390;23;20579;-82
2023/02/02 08:52:11;;;;;;;1.02;0.80;;;18.40;43.30;;;;;;6155842;23;20143;-81
2023/02/02 08:54:37;;;;;;;0.75;0.60;;;18.30;43.40;;;;;;6155616;23;20423;-82
2023/02/02 08:57:03;;;;;;;1.50;0.70;;;18.40;43.20;;;;;;6155349;23;20688;-81
2023/02/02 08:59:28;;;;;;;0.80;0.70;;;18.40;43.20;;;;;;6155598;23;20201;-81
2023/02/02 09:01:55;;;;;;;0.80;0.70;;;18.40;43.20;;;;;;6155939;23;20146;-81
2023/02/02 09:04:21;;;;;;;0.80;0.80;;;18.50;43.30;;;;;;6156519;23;20575;-82
2023/02/02 09:06:46;;;;;;;0.98;0.68;;;18.50;43.30;;;;;;6156814;23;20178;-81
2023/02/02 09:09:13;;;;;;;0.88;0.70;;;18.50;43.40;;;;;;6156638;23;20211;-80
2023/02/02 09:11:39;;;;;;;0.82;0.68;;;18.50;43.40;;;;;;6157095;23;20214;-80
2023/02/02 09:14:05;;;;;;;1.13;0.50;;;18.50;43.20;;;;;;6131027;23;20559;-80
2023/02/02 09:16:31;;;;;;;0.98;0.60;;;18.50;43.20;;;;;;6131249;23;20554;-80
2023/02/02 09:18:57;;;;;;;0.75;0.75;;;18.50;43.10;;;;;;6130887;23;20136;-81
2023/02/02 09:21:23;;;;;;;1.17;0.80;;;18.50;43.10;;;;;;6131967;23;20163;-81
2023/02/02 09:23:49;;;;;;;2.13;0.75;;;18.60;43.00;;;;;;6083038;23;20478;-81
2023/02/02 09:26:17;;;;;;;1.75;0.60;;;18.50;43.20;;;;;;6158586;23;20214;-81
2023/02/02 09:28:45;;;;;;;0.90;0.80;;;18.50;43.80;;;;;;6158242;23;20155;-81
2023/02/02 09:31:11;;;;;;;3.58;0.85;;;18.40;43.60;;;;;;6158633;23;20163;-81
2023/02/02 09:33:36;;;;;;;2.53;0.63;;;18.40;43.90;;;;;;6157916;23;20143;-80
2023/02/02 09:36:04;;;;;;;1.27;0.70;;;18.40;44.20;;;;;;6131702;23;20140;-80
2023/02/02 09:38:29;;;;;;;3.40;0.85;;;18.40;44.30;;;;;;6131621;23;20225;-80
2023/02/02 09:40:55;;;;;;;1.65;0.80;;;18.30;44.10;;;;;;6108685;23;20132;-80
2023/02/02 09:43:33;;;;;;;3.55;0.65;;;18.40;43.90;;;;;;6158541;23;20135;-80
2023/02/02 09:46:06;;;;;;;2.72;0.57;;;18.50;43.30;;;;;;6132355;23;20223;-80
2023/02/02 09:48:49;;;;;;;1.45;0.70;;;18.50;43.80;;;;;;6159818;23;20143;-81
2023/02/02 09:51:17;;;;;;;3.70;0.70;;;18.50;43.70;;;;;;6159134;23;20135;-81
2023/02/02 09:53:49;;;;;;;3.22;0.90;;;18.60;43.80;;;;;;6108858;23;20236;-81
2023/02/02 09:56:22;;;;;;;6.63;0.98;;;18.60;44.00;;;;;;6133742;23;20147;-81
2023/02/02 09:58:50;;;;;;;2.25;0.75;;;18.60;43.70;;;;;;6159758;23;20167;-80
2023/02/02 10:01:23;;;;;;;1.92;0.70;;;18.60;44.30;;;;;;6133344;23;20139;-79
2023/02/02 10:04:09;;;;;;;8.52;0.90;;;18.60;43.70;;;;;;6133187;23;20170;-80
2023/02/02 10:06:37;;;;;;;2.00;0.63;;;18.60;43.90;;;;;;6158944;23;20142;-80
2023/02/02 10:09:26;;;;;;;4.53;0.82;;;18.60;43.50;;;;;;6132328;23;20564;-81
2023/02/02 10:12:28;;;;;;;1.42;0.68;;;18.70;43.50;;;;;;6158337;23;20150;-81
2023/02/02 10:15:12;;;;;;;3.17;1.17;;;18.70;43.20;;;;;;6131987;23;20150;-80
2023/02/02 10:17:53;;;;;;;3.33;0.70;;;18.70;43.50;;;;;;6158140;23;20239;-81
2023/02/02 10:20:29;;;;;;;3.33;0.88;;;18.70;43.30;;;;;;6133149;23;20150;-81
2023/02/02 10:22:57;;;;;;;1.95;0.75;;;18.70;43.30;;;;;;6133168;23;20132;-81
2023/02/02 10:25:25;;;;;;;2.55;0.80;;;18.70;43.30;;;;;;6159282;23;20136;-81
2023/02/02 10:27:59;;;;;;;1.80;0.70;;;18.80;43.00;;;;;;6108674;23;20210;-81
2023/02/02 10:30:45;;;;;;;3.28;0.60;;;18.70;43.50;;;;;;6158739;23;20139;-81
2023/02/02 10:33:28;;;;;;;3.80;0.77;;;18.70;43.50;;;;;;6133595;23;20142;-81
2023/02/02 10:36:18;;;;;;;4.32;0.70;;;18.70;43.80;;;;;;6111511;23;20155;-82
2023/02/02 10:38:56;;;;;;;1.80;0.60;;;18.70;43.50;;;;;;6158909;23;20619;-81
2023/02/02 10:41:40;;;;;;;4.45;0.80;;;18.70;43.60;;;;;;6135921;23;20135;-81
2023/02/02 10:44:23;;;;;;;2.58;0.70;;;18.70;43.90;;;;;;6135553;23;20132;-81
2023/02/02 10:46:53;;;;;;;5.78;0.80;;;18.60;44.00;;;;;;6133032;23;20158;-81
2023/02/02 10:49:30;;;;;;;3.42;0.75;;;18.60;44.20;;;;;;6079001;23;20159;-80
2023/02/02 10:52:19;;;;;;;4.45;0.80;;;18.60;43.70;;;;;;6079537;23;20155;-81
2023/02/02 10:54:51;;;;;;;1.63;0.70;;;18.60;43.50;;;;;;6078875;23;20156;-80
2023/02/02 10:57:23;;;;;;;2.05;0.68;;;18.70;43.40;;;;;;6078501;23;20466;-80
2023/02/02 10:59:59;;;;;;;1.85;0.60;;;18.70;43.70;;;;;;6103677;23;20585;-81
2023/02/02 11:02:25;;;;;;;1.83;0.60;;;18.70;43.90;;;;;;6078536;23;20199;-81
2023/02/02 11:07:35;;;;;;;1.38;0.70;;;18.70;43.90;;;;;;6105886;23;20145;-81
2023/02/02 11:10:00;;;;;;;3.22;0.60;;;18.70;43.90;;;;;;6077043;23;20243;-81
2023/02/02 11:12:30;;;;;;;1.58;0.77;;;18.70;43.80;;;;;;6077837;23;20198;-81
2023/02/02 11:15:00;;;;;;;1.40;0.63;;;18.60;43.80;;;;;;6052628;23;20160;-80
2023/02/02 11:17:26;;;;;;;1.60;0.60;;;18.60;43.70;;;;;;6100894;23;20231;-81
2023/02/02 11:19:54;;;;;;;1.40;0.50;;;18.60;43.50;;;;;;6110758;23;20151;-80
2023/02/02 11:22:35;;;;;;;1.02;0.50;;;18.70;43.60;;;;;;6107589;23;20464;-80
2023/02/02 11:25:04;;;;;;;1.13;0.70;;;18.70;43.00;;;;;;6084399;23;20151;-82
2023/02/02 11:27:37;;;;;;;2.33;0.65;;;18.60;43.90;;;;;;6130322;23;20642;-81
2023/02/02 11:30:27;;;;;;;1.48;0.50;;;18.70;43.50;;;;;;6133052;23;20143;-80
2023/02/02 11:32:54;;;;;;;1.92;0.57;;;18.70;43.70;;;;;;6107831;23;20144;-81
2023/02/02 11:35:24;;;;;;;0.68;0.40;;;18.70;42.90;;;;;;6132144;23;20140;-80
2023/02/02 11:38:16;;;;;;;1.90;0.43;;;18.70;43.70;;;;;;6107260;23;20282;-81
2023/02/02 11:40:43;;;;;;;2.95;0.70;;;18.70;42.70;;;;;;6130188;23;20151;-81
2023/02/02 11:43:30;;;;;;;1.23;0.73;;;18.70;42.60;;;;;;6106388;23;20587;-81
2023/02/02 11:46:05;;;;;;;0.70;0.50;;;18.70;43.30;;;;;;6156335;23;20618;-81
2023/02/02 11:48:36;;;;;;;1.55;0.52;;;18.70;43.00;;;;;;6106251;23;20143;-81
2023/02/02 11:51:01;;;;;;;0.93;0.50;;;18.70;43.10;;;;;;6156331;23;20136;-81
2023/02/02 11:53:41;;;;;;;0.80;0.50;;;18.70;42.90;;;;;;6156759;23;20167;-81
2023/02/02 11:56:09;;;;;;;0.95;0.50;;;18.70;43.20;;;;;;6156163;23;20567;-81
2023/02/02 11:58:43;;;;;;;0.93;0.55;;;18.70;43.30;;;;;;6156996;23;20171;-81
2023/02/02 12:01:21;;;;;;;1.75;0.50;;;18.70;42.80;;;;;;6130200;23;20281;-81
2023/02/02 12:03:47;;;;;;;1.08;0.50;;;18.70;42.90;;;;;;6107138;23;20168;-81
2023/02/02 12:06:34;;;;;;;1.90;0.75;;;18.70;42.50;;;;;;6130366;23;20182;-81
2023/02/02 12:09:00;;;;;;;0.85;0.50;;;18.70;43.00;;;;;;6130888;23;20139;-81
2023/02/02 12:11:42;;;;;;;1.33;0.40;;;18.70;42.90;;;;;;6106017;23;20151;-81
2023/02/02 12:14:38;;;;;;;1.33;0.50;;;18.60;43.40;;;;;;6156016;23;20143;-81
2023/02/02 12:17:12;;;;;;;2.35;0.60;;;18.60;42.90;;;;;;6155889;23;20498;-81
2023/02/02 12:20:08;;;;;;;1.35;0.50;;;18.60;43.00;;;;;;6082414;23;20155;-81
2023/02/02 12:22:47;;;;;;;0.95;0.40;;;18.60;43.00;;;;;;6136322;23;20467;-81
2023/02/02 12:25:36;;;;;;;1.58;0.50;;;18.70;42.70;;;;;;6155272;23;20567;-80
2023/02/02 12:28:23;;;;;;;0.55;0.47;;;18.70;42.60;;;;;;6134435;23;20186;-83
2023/02/02 12:31:04;;;;;;;1.08;0.52;;;18.70;42.20;;;;;;6129217;23;20143;-81
2023/02/02 12:33:48;;;;;;;0.70;0.40;;;18.60;42.40;;;;;;6130198;23;20215;-82
2023/02/02 12:36:53;;;;;;;0.60;0.50;;;18.70;42.20;;;;;;6106620;23;20183;-81
2023/02/02 12:39:38;;;;;;;1.23;0.52;;;18.70;42.20;;;;;;6092209;23;20171;-81
2023/02/02 12:42:24;;;;;;;0.70;0.30;;;18.70;41.90;;;;;;6132040;23;20161;-81
2023/02/02 12:45:52;;;;;;;0.93;0.55;;;18.70;42.40;;;;;;6129007;23;20214;-81
2023/02/02 12:55:47;;;;;;;0.50;0.40;;;18.70;42.10;;;;;;5817050;24;20167;-80
2023/02/02 12:58:33;;;;;;;2.15;0.50;;;18.70;42.10;;;;;;5803107;24;20249;-83
2023/02/02 13:01:28;;;;;;;0.88;0.50;;;18.70;42.10;;;;;;5818488;24;20163;-82
2023/02/02 13:04:19;;;;;;;0.73;0.50;;;18.70;41.80;;;;;;5799056;24;20583;-81
2023/02/02 13:07:06;;;;;;;0.52;0.40;;;18.70;42.00;;;;;;5808347;24;20187;-82
2023/02/02 13:10:07;;;;;;;0.65;0.57;;;18.80;41.80;;;;;;5806919;24;20156;-82
2023/02/02 13:12:36;;;;;;;0.38;0.38;;;18.80;41.80;;;;;;5802553;24;20155;-82
2023/02/02 13:15:06;;;;;;;0.90;0.50;;;18.80;41.60;;;;;;5796693;24;20584;-81
2023/02/02 13:17:38;;;;;;;0.77;0.40;;;18.70;41.80;;;;;;5775949;24;20632;-79
2023/02/02 13:20:15;;;;;;;1.50;0.43;;;18.70;41.60;;;;;;5797650;24;20500;-81
2023/02/02 13:22:41;;;;;;;0.63;0.38;;;18.80;41.80;;;;;;5856142;24;20581;-81
2023/02/02 13:25:13;;;;;;;0.57;0.50;;;18.80;41.50;;;;;;5926300;24;20153;-81